Terminal Aerodrome Forecast
Issued by NWS

Home | Current Version | Previous Version | Text Only | Print | Product List | Glossary On
Versions: 1 2 3 4 5 6 7 8 9 10 11 12 13 14 15
261
FTUS42 KJAX 251720
TAFCRG
TAF
KCRG 251720Z 2518/2618 13012KT P6SM SCT050
     FM260100 19004KT P6SM SKC
     FM261400 21007KT P6SM SCT030=

USA.gov is the U.S. government's official web portal to all federal, state and local government web resources and services.